createdAt,value
2019-01-10T00:01:56.709Z,0.80
2019-01-10T00:04:22.891Z,1.10
2019-01-10T00:06:48.944Z,0.90
2019-01-10T00:09:15.211Z,1.20
2019-01-10T00:11:41.438Z,0.60
2019-01-10T00:14:07.455Z,1.03
2019-01-10T00:16:33.484Z,1.10
2019-01-10T00:18:59.482Z,0.90
2019-01-10T00:21:25.568Z,0.90
2019-01-10T00:23:51.696Z,1.07
2019-01-10T00:26:17.923Z,0.70
2019-01-10T00:28:44.106Z,0.60
2019-01-10T00:31:10.523Z,0.90
2019-01-10T00:33:36.549Z,0.80
2019-01-10T00:36:02.990Z,0.80
2019-01-10T00:38:29.014Z,1.20
2019-01-10T00:40:55.194Z,0.80
2019-01-10T00:43:21.424Z,0.90
2019-01-10T00:45:47.447Z,0.80
2019-01-10T00:48:13.530Z,1.33
2019-01-10T00:50:39.679Z,0.70
2019-01-10T00:53:05.836Z,0.83
2019-01-10T00:55:32.138Z,0.70
2019-01-10T00:57:58.359Z,0.53
2019-01-10T01:00:25.893Z,0.80
2019-01-10T01:02:51.998Z,0.70
2019-01-10T01:05:19.368Z,0.90
2019-01-10T01:07:45.495Z,0.80
2019-01-10T01:10:16.831Z,0.67
2019-01-10T01:12:42.855Z,1.00
2019-01-10T01:15:11.229Z,0.60
2019-01-10T01:17:37.394Z,0.70
2019-01-10T01:20:06.557Z,0.60
2019-01-10T01:22:32.730Z,0.70
2019-01-10T01:24:58.897Z,0.70
2019-01-10T01:27:25.226Z,0.90
2019-01-10T01:29:51.254Z,0.70
2019-01-10T01:32:17.403Z,0.77
2019-01-10T01:34:43.419Z,1.27
2019-01-10T01:37:09.511Z,0.87
2019-01-10T01:39:35.631Z,0.80
2019-01-10T01:42:01.697Z,1.13
2019-01-10T01:44:27.853Z,1.00
2019-01-10T01:46:54.196Z,1.07
2019-01-10T01:49:20.235Z,0.70
2019-01-10T01:51:46.606Z,1.20
2019-01-10T01:54:12.769Z,1.10
2019-01-10T01:56:38.782Z,0.90
2019-01-10T01:59:04.904Z,0.80
2019-01-10T02:01:31.055Z,0.70
2019-01-10T02:03:57.080Z,0.70
2019-01-10T02:06:23.126Z,1.10
2019-01-10T02:08:49.181Z,0.80
2019-01-10T02:11:15.298Z,0.83
2019-01-10T02:13:41.559Z,0.90
2019-01-10T02:16:07.667Z,1.10
2019-01-10T02:18:33.735Z,0.90
2019-01-10T02:21:00.132Z,0.70
2019-01-10T02:23:26.295Z,0.70
2019-01-10T02:25:52.294Z,0.70
2019-01-10T02:28:18.591Z,0.67
2019-01-10T02:30:44.615Z,1.10
2019-01-10T02:33:10.760Z,0.80
2019-01-10T02:35:36.779Z,0.90
2019-01-10T02:38:03.118Z,0.83
2019-01-10T02:40:29.159Z,0.60
2019-01-10T02:42:55.179Z,0.77
2019-01-10T02:45:21.202Z,0.70
2019-01-10T02:47:47.218Z,0.70
2019-01-10T02:50:16.827Z,0.80
2019-01-10T02:52:42.835Z,0.60
2019-01-10T02:55:09.314Z,0.77
2019-01-10T02:57:35.394Z,0.70
2019-01-10T03:00:03.568Z,0.87
2019-01-10T03:02:29.620Z,1.20
2019-01-10T03:04:55.756Z,0.93
2019-01-10T03:07:21.762Z,1.10
2019-01-10T03:09:47.790Z,1.00
2019-01-10T03:12:13.835Z,0.70
2019-01-10T03:14:39.862Z,0.83
2019-01-10T03:17:06.119Z,0.87
2019-01-10T03:19:32.276Z,0.73
2019-01-10T03:21:58.339Z,0.80
2019-01-10T03:24:24.544Z,0.83
2019-01-10T03:26:50.782Z,0.97
2019-01-10T03:29:16.792Z,1.40
2019-01-10T03:31:42.816Z,1.93
2019-01-10T03:34:08.852Z,0.80
2019-01-10T03:36:34.984Z,1.20
2019-01-10T03:39:00.978Z,0.70
2019-01-10T03:41:27.014Z,0.93
2019-01-10T03:43:53.036Z,1.07
2019-01-10T03:46:19.069Z,0.90
2019-01-10T03:48:45.072Z,0.80
2019-01-10T03:51:11.103Z,1.03
2019-01-10T03:53:37.122Z,0.70
2019-01-10T03:56:03.245Z,0.80
2019-01-10T03:58:29.271Z,0.70
2019-01-10T04:00:55.294Z,1.10
2019-01-10T04:03:21.442Z,0.97
2019-01-10T04:05:47.454Z,0.80
2019-01-10T04:08:13.471Z,0.80
2019-01-10T04:10:39.580Z,0.70
2019-01-10T04:13:05.632Z,1.30
2019-01-10T04:15:31.772Z,0.80
2019-01-10T04:17:57.793Z,0.70
2019-01-10T04:20:23.796Z,1.13
2019-01-10T04:22:49.835Z,1.50
2019-01-10T04:25:15.881Z,1.23
2019-01-10T04:27:42.086Z,1.20
2019-01-10T04:30:14.457Z,0.90
2019-01-10T04:32:40.465Z,1.00
2019-01-10T04:35:06.829Z,1.40
2019-01-10T04:37:33.142Z,1.83
2019-01-10T04:39:59.219Z,2.50
2019-01-10T04:42:25.247Z,2.07
2019-01-10T04:44:51.302Z,3.37
2019-01-10T04:47:17.422Z,2.70
2019-01-10T04:49:43.510Z,2.40
2019-01-10T04:52:09.612Z,1.90
2019-01-10T04:54:38.350Z,2.30
2019-01-10T04:57:03.714Z,1.53
2019-01-10T04:59:29.740Z,2.27
2019-01-10T05:01:55.799Z,2.20
2019-01-10T05:04:21.821Z,2.30
2019-01-10T05:06:47.855Z,2.50
2019-01-10T05:09:14.133Z,2.40
2019-01-10T05:11:40.183Z,2.00
2019-01-10T05:14:06.207Z,1.97
2019-01-10T05:16:32.357Z,2.50
2019-01-10T05:18:58.472Z,2.27
2019-01-10T05:21:24.898Z,2.17
2019-01-10T05:23:51.138Z,2.90
2019-01-10T05:26:17.155Z,2.90
2019-01-10T05:28:43.275Z,2.33
2019-01-10T05:31:09.406Z,2.70
2019-01-10T05:33:35.459Z,2.47
2019-01-10T05:36:01.598Z,2.87
2019-01-10T05:38:27.764Z,2.20
2019-01-10T05:40:53.891Z,2.20
2019-01-10T05:43:19.923Z,2.23
2019-01-10T05:45:46.025Z,2.10
2019-01-10T05:48:12.202Z,2.60
2019-01-10T05:50:39.188Z,2.20
2019-01-10T05:53:05.218Z,2.20
2019-01-10T05:55:31.246Z,1.90
2019-01-10T05:57:57.251Z,2.07
2019-01-10T06:00:24.330Z,2.20
2019-01-10T06:02:50.365Z,2.33
2019-01-10T06:05:16.799Z,2.00
2019-01-10T06:07:42.800Z,2.33
2019-01-10T06:10:14.990Z,1.97
2019-01-10T06:12:41.139Z,2.00
2019-01-10T06:15:10.577Z,2.47
2019-01-10T06:17:36.723Z,2.40
2019-01-10T06:20:06.469Z,2.20
2019-01-10T06:22:32.732Z,2.30
2019-01-10T06:24:58.761Z,2.17
2019-01-10T06:27:24.816Z,2.30
2019-01-10T06:29:50.879Z,1.83
2019-01-10T06:32:16.886Z,2.70
2019-01-10T06:34:42.916Z,2.27
2019-01-10T06:37:08.975Z,1.60
2019-01-10T06:39:35.069Z,2.50
2019-01-10T06:42:01.220Z,2.97
2019-01-10T06:44:27.784Z,2.20
2019-01-10T06:46:53.933Z,2.43
2019-01-10T06:49:20.060Z,2.80
2019-01-10T06:51:46.048Z,2.10
2019-01-10T06:54:12.066Z,3.43
2019-01-10T06:56:38.074Z,3.30
2019-01-10T06:59:04.147Z,3.17
2019-01-10T07:01:30.242Z,2.17
2019-01-10T07:03:56.370Z,2.60
2019-01-10T07:06:22.650Z,2.60
2019-01-10T07:08:48.781Z,2.40
2019-01-10T07:11:14.907Z,2.30
2019-01-10T07:13:40.939Z,2.37
2019-01-10T07:16:07.065Z,2.47
2019-01-10T07:18:33.269Z,3.50
2019-01-10T07:20:59.351Z,4.30
2019-01-10T07:23:25.410Z,3.10
2019-01-10T07:25:53.570Z,3.50
2019-01-10T07:28:22.662Z,3.70
2019-01-10T07:30:48.695Z,3.33
2019-01-10T07:33:14.741Z,3.80
2019-01-10T07:35:41.102Z,3.40
2019-01-10T07:38:07.110Z,3.67
2019-01-10T07:40:37.067Z,3.97
2019-01-10T07:43:03.199Z,4.73
2019-01-10T07:45:29.240Z,3.10
2019-01-10T07:47:55.425Z,3.60
2019-01-10T07:50:26.677Z,3.57
2019-01-10T07:52:53.053Z,3.00
2019-01-10T07:55:19.119Z,3.00
2019-01-10T07:57:45.246Z,2.70
2019-01-10T08:00:14.811Z,3.23
2019-01-10T08:02:41.033Z,3.40
2019-01-10T08:05:07.901Z,2.73
2019-01-10T08:07:33.943Z,3.70
2019-01-10T08:10:00.003Z,3.63
2019-01-10T08:12:26.130Z,3.57
2019-01-10T08:14:52.258Z,3.53
2019-01-10T08:17:18.301Z,3.03
2019-01-10T08:19:44.336Z,2.80
2019-01-10T08:22:10.339Z,2.77
2019-01-10T08:24:36.382Z,2.73
2019-01-10T08:27:02.551Z,2.23
2019-01-10T08:29:28.607Z,3.23
2019-01-10T08:31:54.631Z,2.67
2019-01-10T08:34:20.650Z,3.03
2019-01-10T08:36:46.689Z,2.83
2019-01-10T08:39:12.722Z,2.50
2019-01-10T08:41:38.726Z,2.67
2019-01-10T08:44:04.858Z,3.20
2019-01-10T08:46:30.921Z,2.80
2019-01-10T08:48:57.060Z,2.03
2019-01-10T08:51:23.191Z,3.70
2019-01-10T08:53:54.168Z,3.00
2019-01-10T08:56:17.295Z,3.00
2019-01-10T08:58:43.350Z,2.90
2019-01-10T09:01:09.478Z,2.87
2019-01-10T09:03:35.499Z,3.17
2019-01-10T09:06:08.011Z,2.10
2019-01-10T09:08:29.478Z,2.37
2019-01-10T09:10:55.620Z,2.50
2019-01-10T09:13:21.751Z,2.50
2019-01-10T09:15:47.799Z,2.70
2019-01-10T09:18:13.909Z,1.63
2019-01-10T09:20:40.346Z,2.00
2019-01-10T09:23:06.493Z,2.40
2019-01-10T09:25:32.962Z,2.60
2019-01-10T09:27:59.043Z,2.17
2019-01-10T09:30:25.306Z,2.23
2019-01-10T09:32:51.569Z,2.37
2019-01-10T09:35:17.598Z,1.73
2019-01-10T09:37:43.748Z,2.23
2019-01-10T09:40:18.558Z,2.80
2019-01-10T09:42:44.791Z,2.63
2019-01-10T09:45:13.730Z,2.20
2019-01-10T09:47:39.776Z,1.97
2019-01-10T09:50:09.403Z,2.27
2019-01-10T09:52:35.454Z,2.10
2019-01-10T09:55:01.525Z,2.00
2019-01-10T09:57:27.578Z,1.80
2019-01-10T09:59:53.940Z,2.10
2019-01-10T10:02:19.966Z,4.90
2019-01-10T10:04:46.271Z,2.23
2019-01-10T10:07:12.298Z,2.33
2019-01-10T10:09:38.325Z,2.33
2019-01-10T10:12:04.386Z,2.20
2019-01-10T10:14:30.511Z,2.13
2019-01-10T10:16:56.562Z,1.93
2019-01-10T10:19:22.593Z,1.80
2019-01-10T10:21:48.762Z,2.60
2019-01-10T10:24:14.869Z,2.60
2019-01-10T10:26:41.123Z,2.10
2019-01-10T10:29:07.195Z,2.20
2019-01-10T10:31:33.282Z,2.00
2019-01-10T10:33:59.318Z,1.40
2019-01-10T10:36:25.977Z,2.20
2019-01-10T10:38:52.002Z,2.13
2019-01-10T10:41:18.058Z,2.20
2019-01-10T10:43:44.248Z,1.73
2019-01-10T10:46:10.614Z,1.67
2019-01-10T10:48:36.931Z,1.77
2019-01-10T10:51:03.328Z,2.20
2019-01-10T10:53:29.427Z,1.70
2019-01-10T10:55:55.789Z,1.80
2019-01-10T10:58:21.923Z,2.00
2019-01-10T11:00:48.093Z,2.10
2019-01-10T11:03:14.262Z,1.87
2019-01-10T11:05:40.387Z,1.50
2019-01-10T11:08:06.386Z,1.37
2019-01-10T11:10:32.651Z,2.07
2019-01-10T11:12:58.650Z,1.83
2019-01-10T11:15:25.424Z,1.50
2019-01-10T11:17:51.826Z,1.50
2019-01-10T11:20:20.759Z,1.30
2019-01-10T11:22:47.652Z,1.40
2019-01-10T11:25:16.340Z,1.40
2019-01-10T11:27:42.571Z,1.70
2019-01-10T11:30:11.912Z,1.60
2019-01-10T11:32:37.978Z,1.53
2019-01-10T11:35:04.340Z,2.07
2019-01-10T11:37:30.335Z,1.67
2019-01-10T11:39:56.605Z,1.80
2019-01-10T11:42:22.681Z,1.73
2019-01-10T11:44:48.750Z,1.43
2019-01-10T11:47:14.895Z,2.37
2019-01-10T11:49:40.909Z,2.50
2019-01-10T11:52:07.263Z,1.90
2019-01-10T11:54:33.323Z,2.50
2019-01-10T11:56:59.460Z,2.23
2019-01-10T11:59:25.508Z,2.27
2019-01-10T12:01:51.542Z,2.30
2019-01-10T12:04:17.691Z,2.63
2019-01-10T12:06:43.691Z,2.17
2019-01-10T12:09:09.831Z,2.40
2019-01-10T12:11:35.883Z,3.20
2019-01-10T12:14:02.098Z,2.60
2019-01-10T12:16:28.903Z,3.07
2019-01-10T12:18:59.344Z,2.80
2019-01-10T12:21:23.230Z,3.33
2019-01-10T12:23:49.383Z,2.00
2019-01-10T12:26:15.506Z,2.57
2019-01-10T12:28:41.622Z,2.00
2019-01-10T12:31:07.667Z,2.43
2019-01-10T12:33:33.752Z,2.40
2019-01-10T12:35:59.873Z,2.37
2019-01-10T12:38:25.996Z,2.40
2019-01-10T12:40:52.023Z,1.57
2019-01-10T12:43:18.234Z,1.83
2019-01-10T12:45:44.283Z,2.10
2019-01-10T12:48:10.358Z,2.60
2019-01-10T12:50:36.404Z,2.80
2019-01-10T12:53:02.555Z,2.50
2019-01-10T12:55:32.640Z,1.53
2019-01-10T12:57:58.794Z,2.53
2019-01-10T13:00:24.792Z,2.13
2019-01-10T13:02:52.188Z,1.87
2019-01-10T13:05:18.582Z,2.30
2019-01-10T13:07:44.619Z,2.40
2019-01-10T13:10:17.932Z,2.00
2019-01-10T13:12:45.422Z,2.00
2019-01-10T13:15:14.430Z,2.27
2019-01-10T13:17:40.656Z,1.80
2019-01-10T13:20:09.911Z,1.67
2019-01-10T13:22:36.186Z,2.57
2019-01-10T13:25:04.043Z,2.10
2019-01-10T13:27:30.117Z,2.00
2019-01-10T13:29:56.449Z,1.83
2019-01-10T13:32:23.310Z,2.07
2019-01-10T13:34:50.006Z,2.20
2019-01-10T13:37:16.222Z,2.00
2019-01-10T13:39:42.482Z,2.00
2019-01-10T13:42:08.596Z,1.43
2019-01-10T13:44:34.809Z,2.03
2019-01-10T13:47:01.638Z,1.60
2019-01-10T13:49:28.278Z,1.83
2019-01-10T13:51:54.342Z,1.60
2019-01-10T13:54:20.460Z,1.63
2019-01-10T13:56:46.475Z,1.83
2019-01-10T14:01:38.667Z,1.43
2019-01-10T14:04:05.078Z,2.37
2019-01-10T14:06:31.230Z,1.93
2019-01-10T14:08:57.519Z,2.43
2019-01-10T14:11:23.952Z,2.20
2019-01-10T14:13:50.054Z,2.17
2019-01-10T14:16:16.194Z,2.40
2019-01-10T14:18:42.421Z,1.40
2019-01-10T14:21:08.432Z,1.83
2019-01-10T14:23:34.470Z,1.90
2019-01-10T14:26:00.502Z,1.80
2019-01-10T14:28:26.537Z,2.23
2019-01-10T14:30:52.554Z,3.23
2019-01-10T14:33:18.877Z,23.33
2019-01-10T14:35:45.084Z,17.90
2019-01-10T14:38:11.375Z,25.47
2019-01-10T14:40:37.496Z,42.87
2019-01-10T14:43:03.908Z,31.40
2019-01-10T14:45:31.101Z,47.97
2019-01-10T14:48:01.815Z,7.23
2019-01-10T14:50:25.738Z,25.10
2019-01-10T14:52:51.857Z,56.73
2019-01-10T14:55:17.958Z,48.50
2019-01-10T14:57:44.686Z,30.30
2019-01-10T15:00:16.570Z,32.87
2019-01-10T15:02:42.755Z,24.90
2019-01-10T15:05:08.881Z,20.10
2019-01-10T15:07:34.890Z,16.57
2019-01-10T15:10:01.014Z,12.20
2019-01-10T15:12:27.023Z,10.70
2019-01-10T15:14:53.047Z,7.60
2019-01-10T15:17:19.084Z,5.70
2019-01-10T15:19:45.109Z,5.90
2019-01-10T15:22:11.143Z,5.57
2019-01-10T15:24:37.191Z,3.60
2019-01-10T15:27:03.301Z,4.00
2019-01-10T15:29:29.367Z,10.40
2019-01-10T15:31:55.362Z,37.90
2019-01-10T15:34:21.391Z,53.80
2019-01-10T15:36:47.465Z,22.57
2019-01-10T15:39:13.491Z,19.53
2019-01-10T15:41:39.504Z,11.70
2019-01-10T15:44:05.569Z,20.70
2019-01-10T15:46:31.560Z,57.73
2019-01-10T15:48:57.588Z,32.37
2019-01-10T15:51:23.587Z,77.07
2019-01-10T15:53:49.585Z,31.57
2019-01-10T15:56:15.733Z,33.70
2019-01-10T15:58:41.842Z,26.97
2019-01-10T16:01:08.375Z,4.60
2019-01-10T16:03:34.486Z,4.17
2019-01-10T16:06:00.591Z,2.63
2019-01-10T16:08:26.613Z,2.60
2019-01-10T16:10:52.676Z,2.17
2019-01-10T16:13:18.819Z,2.07
2019-01-10T16:15:44.850Z,1.67
2019-01-10T16:18:10.917Z,2.50
2019-01-10T16:20:36.911Z,2.00
2019-01-10T16:23:03.546Z,2.13
2019-01-10T16:25:29.574Z,2.13
2019-01-10T16:27:55.602Z,3.03
2019-01-10T16:30:24.018Z,3.60
2019-01-10T16:32:50.107Z,3.47
2019-01-10T16:35:16.168Z,3.50
2019-01-10T16:37:42.360Z,4.50
2019-01-10T16:40:10.906Z,3.97
2019-01-10T16:42:36.964Z,3.80
2019-01-10T16:45:06.918Z,4.00
2019-01-10T16:47:33.010Z,3.67
2019-01-10T16:49:59.039Z,4.20
2019-01-10T16:52:25.144Z,2.80
2019-01-10T16:54:51.186Z,3.83
2019-01-10T16:57:17.235Z,4.00
2019-01-10T16:59:43.360Z,3.67
2019-01-10T17:02:09.417Z,3.40
2019-01-10T17:04:35.513Z,3.67
2019-01-10T17:07:01.530Z,3.40
2019-01-10T17:09:27.543Z,4.20
2019-01-10T17:11:53.591Z,4.20
2019-01-10T17:14:19.603Z,3.60
2019-01-10T17:16:50.133Z,4.40
2019-01-10T17:19:13.676Z,3.93
2019-01-10T17:21:39.724Z,2.63
2019-01-10T17:24:06.021Z,3.47
2019-01-10T17:26:32.270Z,3.30
2019-01-10T17:28:58.297Z,3.40
2019-01-10T17:31:24.379Z,2.67
2019-01-10T17:33:50.455Z,3.57
2019-01-10T17:36:18.536Z,3.17
2019-01-10T17:38:44.764Z,2.93
2019-01-10T17:41:10.761Z,2.63
2019-01-10T17:43:36.803Z,3.10
2019-01-10T17:46:02.839Z,2.80
2019-01-10T17:48:28.984Z,3.00
2019-01-10T17:50:55.253Z,2.50
2019-01-10T17:53:21.275Z,3.03
2019-01-10T17:55:47.283Z,3.70
2019-01-10T17:58:13.629Z,3.70
2019-01-10T18:00:39.727Z,3.47
2019-01-10T18:03:05.881Z,3.27
2019-01-10T18:05:32.014Z,3.63
2019-01-10T18:07:58.041Z,5.20
2019-01-10T18:10:24.156Z,4.80
2019-01-10T18:12:50.190Z,7.23
2019-01-10T18:15:18.704Z,6.97
2019-01-10T18:17:50.116Z,8.40
2019-01-10T18:20:18.858Z,11.70
2019-01-10T18:22:44.964Z,17.70
2019-01-10T18:25:11.168Z,4.53
2019-01-10T18:27:38.755Z,9.20
2019-01-10T18:30:08.706Z,7.23
2019-01-10T18:32:35.985Z,4.30
2019-01-10T18:35:11.880Z,15.10
2019-01-10T18:37:41.580Z,5.80
2019-01-10T18:40:17.171Z,12.00
2019-01-10T18:42:48.164Z,4.30
2019-01-10T18:45:30.969Z,6.30
2019-01-10T18:48:00.789Z,5.73
2019-01-10T18:53:51.890Z,52.57
2019-01-10T18:56:22.964Z,49.23
2019-01-10T18:59:11.605Z,79.63
2019-01-10T19:01:46.560Z,6.50
2019-01-10T19:04:33.844Z,6.93
2019-01-10T19:06:59.907Z,4.50
2019-01-10T19:09:25.908Z,6.60
2019-01-10T19:11:52.234Z,5.10
2019-01-10T19:14:18.265Z,7.40
2019-01-10T19:16:44.370Z,6.57
2019-01-10T19:19:10.414Z,4.70
2019-01-10T19:21:36.458Z,5.20
2019-01-10T19:24:02.486Z,5.53
2019-01-10T19:26:28.631Z,5.30
2019-01-10T19:28:54.678Z,5.03
2019-01-10T19:31:22.605Z,5.00
2019-01-10T19:33:48.627Z,4.53
2019-01-10T19:36:15.778Z,5.67
2019-01-10T19:38:43.011Z,5.20
2019-01-10T19:41:09.164Z,4.67
2019-01-10T19:43:36.350Z,3.90
2019-01-10T19:46:02.812Z,5.97
2019-01-10T19:48:28.855Z,4.93
2019-01-10T19:50:54.887Z,5.30
2019-01-10T19:53:21.047Z,5.30
2019-01-10T19:55:47.199Z,5.00
2019-01-10T19:58:13.322Z,5.80
2019-01-10T20:00:39.561Z,5.87
2019-01-10T20:03:05.830Z,5.27
2019-01-10T20:05:31.836Z,6.30
2019-01-10T20:07:59.166Z,6.30
2019-01-10T20:10:25.484Z,6.33
2019-01-10T20:12:53.785Z,7.47
2019-01-10T20:15:21.285Z,8.37
2019-01-10T20:17:47.571Z,8.13
2019-01-10T20:20:31.453Z,8.20
2019-01-10T20:22:57.617Z,7.57
2019-01-10T20:25:23.839Z,8.27
2019-01-10T20:27:49.871Z,8.30
2019-01-10T20:30:16.890Z,7.53
2019-01-10T20:32:42.984Z,55.67
2019-01-10T20:35:09.182Z,15.77
2019-01-10T20:37:35.293Z,46.07
2019-01-10T20:40:01.697Z,10.43
2019-01-10T20:42:27.727Z,9.27
2019-01-10T20:44:54.185Z,8.40
2019-01-10T20:47:20.658Z,8.73
2019-01-10T20:49:46.779Z,9.27
2019-01-10T20:52:12.796Z,9.90
2019-01-10T20:54:38.806Z,8.17
2019-01-10T20:57:05.161Z,7.97
2019-01-10T20:59:31.256Z,8.37
2019-01-10T21:01:57.414Z,7.67
2019-01-10T21:04:23.580Z,8.30
2019-01-10T21:06:49.763Z,7.90
2019-01-10T21:09:15.889Z,8.90
2019-01-10T21:11:41.942Z,9.00
2019-01-10T21:14:07.934Z,8.77
2019-01-10T21:16:34.199Z,8.37
2019-01-10T21:19:00.218Z,8.40
2019-01-10T21:21:26.232Z,8.07
2019-01-10T21:23:52.279Z,9.50
2019-01-10T21:26:18.386Z,8.80
2019-01-10T21:28:44.398Z,9.17
2019-01-10T21:31:12.027Z,55.57
2019-01-10T21:33:38.039Z,16.43
2019-01-10T21:36:04.061Z,9.30
2019-01-10T21:38:30.136Z,10.50
2019-01-10T21:40:56.250Z,9.07
2019-01-10T21:43:22.278Z,10.13
2019-01-10T21:45:48.306Z,11.37
2019-01-10T21:48:14.326Z,12.63
2019-01-10T21:50:40.362Z,10.80
2019-01-10T21:53:06.387Z,13.70
2019-01-10T21:55:32.402Z,11.03
2019-01-10T21:57:58.697Z,10.90
2019-01-10T22:00:29.538Z,11.43
2019-01-10T22:02:56.767Z,11.90
2019-01-10T22:05:22.966Z,10.80
2019-01-10T22:07:48.991Z,10.53
2019-01-10T22:10:15.042Z,12.30
2019-01-10T22:12:41.209Z,13.10
2019-01-10T22:15:10.611Z,11.43
2019-01-10T22:17:36.635Z,11.93
2019-01-10T22:20:06.007Z,12.57
2019-01-10T22:22:32.167Z,11.70
2019-01-10T22:24:58.371Z,11.90
2019-01-10T22:27:24.396Z,11.70
2019-01-10T22:29:50.420Z,10.43
2019-01-10T22:32:16.464Z,11.23
2019-01-10T22:34:42.541Z,10.03
2019-01-10T22:37:08.654Z,10.00
2019-01-10T22:39:34.659Z,9.63
2019-01-10T22:42:01.214Z,10.03
2019-01-10T22:44:27.230Z,8.80
2019-01-10T22:46:53.283Z,8.67
2019-01-10T22:49:19.314Z,9.63
2019-01-10T22:51:45.450Z,9.00
2019-01-10T22:54:11.468Z,9.50
2019-01-10T22:56:37.709Z,7.37
2019-01-10T22:59:04.059Z,7.30
2019-01-10T23:01:32.910Z,7.70
2019-01-10T23:03:59.250Z,6.83
2019-01-10T23:06:25.439Z,5.93
2019-01-10T23:08:51.816Z,5.83
2019-01-10T23:11:18.160Z,5.80
2019-01-10T23:13:52.742Z,7.20
2019-01-10T23:16:19.308Z,6.30
2019-01-10T23:18:45.333Z,5.40
2019-01-10T23:21:11.790Z,5.97
2019-01-10T23:23:37.814Z,5.67
2019-01-10T23:26:03.939Z,6.77
2019-01-10T23:28:35.662Z,6.90
2019-01-10T23:31:01.762Z,6.37
2019-01-10T23:33:27.880Z,6.77
2019-01-10T23:35:59.449Z,7.10
2019-01-10T23:38:25.550Z,7.40
2019-01-10T23:40:51.561Z,7.00
2019-01-10T23:43:17.596Z,7.97
2019-01-10T23:45:43.710Z,7.77
2019-01-10T23:48:09.730Z,8.20
2019-01-10T23:50:35.755Z,8.33
2019-01-10T23:53:01.785Z,9.50
2019-01-10T23:55:27.799Z,10.83
2019-01-10T23:57:53.806Z,8.87
